Latest Weather Observations for Hamilton

IDV60801

Issued at 7:22 pm EDT Monday 5 December 2022 (issued every 10 minutes, with the page automatically refreshed every 10 minutes)

About weather observations | Map of weather stations | Latest weather observations for VIC | Other Formats
Station Details ID: 090173 Name: HAMILTON AIRPORT Lat: -37.65 Lon: 142.06 Height: 241.1 m
Data from the previous 72 hours. | See also: Recent months at Hamilton
Date/Time
EDT
Temp
°C
App
Temp
°C
Dew
Point
°C
Rel
Hum
%
Delta-T
°C
Wind Press
QNH
hPa
Press
MSL
hPa
Rain since
9am
mm
Dir  Spd
km/h
Gust
km/h
Spd
kts
Gust
kts
05/07:00pm 12.6 7.7 6.9 68 2.8 S 22 32 12 17 1016.0 1015.5 0.2
05/06:30pm 13.0 7.4 5.4 60 3.6 S 24 32 13 17 1015.7 1015.2 0.2
05/06:00pm 14.3 8.6 6.9 61 3.6 S 26 37 14 20 1015.6 1015.1 0.2
05/05:30pm 14.0 7.7 5.9 58 3.9 S 28 41 15 22 1015.5 1015.0 0.2
05/05:00pm 14.2 7.9 5.8 57 4.0 S 28 35 15 19 1015.5 1015.0 0.2
05/04:30pm 14.6 8.5 6.4 58 4.0 SSW 28 39 15 21 1015.6 1015.1 0.2
05/04:00pm 14.9 8.3 7.7 62 3.6 S 32 41 17 22 1015.6 1015.1 0.2
05/03:30pm 16.0 10.0 8.7 62 3.8 S 30 41 16 22 1015.6 1015.1 0.0
05/03:00pm 15.6 9.1 6.6 55 4.4 SSW 30 39 16 21 1015.5 1015.0 0.0
05/02:30pm 15.1 8.2 6.4 56 4.3 S 32 46 17 25 1015.6 1015.1 0.0
05/02:00pm 14.8 8.4 6.9 59 3.9 SSW 30 43 16 23 1015.7 1015.2 0.0
05/01:30pm 14.9 8.2 7.5 61 3.7 S 32 43 17 23 1015.6 1015.1 0.0
05/01:00pm 14.5 8.1 8.7 68 3.0 SSW 32 39 17 21 1015.4 1014.9 0.0
05/12:30pm 13.7 7.1 7.9 68 2.9 S 32 43 17 23 1015.3 1014.8 0.0
05/12:00pm 14.1 9.7 10.5 79 1.9 S 24 32 13 17 1015.3 1014.8 0.0
05/11:30am 13.5 7.7 8.1 70 2.7 S 28 35 15 19 1015.0 1014.6 0.0
05/11:00am 13.4 7.4 8.5 72 2.5 S 30 37 16 20 1014.7 1014.2 0.0
05/10:30am 12.8 7.0 9.4 80 1.7 S 30 41 16 22 1014.4 1013.9 0.0
05/10:20am 12.9 6.7 9.5 80 1.8 S 32 44 17 24 1014.3 1013.8 0.0
05/10:08am 13.3 7.7 10.3 82 1.6 S 30 44 16 24 1014.2 1013.7 0.0
05/10:06am 13.1 7.4 9.7 80 1.8 S 30 44 16 24 1014.2 1013.7 0.0
05/10:00am 13.1 8.1 9.7 80 1.8 S 26 39 14 21 1014.2 1013.7 0.0
05/09:30am 11.9 6.7 10.3 90 0.8 SSE 28 41 15 22 1014.1 1013.6 0.0
05/09:26am 11.9 7.1 10.3 90 0.8 S 26 35 14 19 1014.1 1013.6 0.0
05/09:00am 11.9 6.3 10.0 88 1.0 S 30 43 16 23 1013.9 1013.4 0.4
05/08:37am 12.4 7.3 10.6 89 0.9 S 28 43 15 23 1013.5 1013.0 0.4
05/08:30am 12.0 6.8 10.1 88 1.0 S 28 43 15 23 1013.5 1013.0 0.4
05/08:27am 12.1 7.3 10.2 88 1.0 S 26 43 14 23 1013.4 1012.9 0.4
05/08:00am 12.8 8.7 11.5 92 0.7 S 24 33 13 18 1013.1 1012.6 0.4
05/07:30am 11.5 6.3 10.4 93 0.6 S 28 39 15 21 1012.8 1012.3 0.4
05/07:00am 11.6 7.9 10.2 91 0.7 S 20 32 11 17 1012.6 1012.1 0.4
05/06:46am 11.5 7.0 10.1 91 0.7 S 24 35 13 19 1012.5 1012.0 0.4
05/06:30am 11.5 6.7 10.2 92 0.7 S 26 39 14 21 1012.3 1011.8 0.4
05/06:25am 11.6 8.0 10.7 94 0.5 SSW 20 32 11 17 1012.3 1011.8 0.4
05/06:00am 11.4 7.7 10.3 93 0.6 S 20 30 11 16 1012.1 1011.6 0.4
05/05:30am 11.7 8.1 10.4 92 0.7 SSW 20 28 11 15 1012.0 1011.5 0.4
05/05:00am 11.7 7.4 10.9 95 0.4 SSW 24 32 13 17 1011.6 1011.1 0.4
05/04:58am 11.7 7.4 10.9 95 0.4 SSW 24 32 13 17 1011.6 1011.1 0.4
05/04:46am 11.6 6.2 10.8 95 0.4 SSW 30 46 16 25 1011.4 1010.8 0.4
05/04:30am 11.9 6.3 11.4 97 0.3 SSW 32 43 17 23 1011.3 1010.7 0.2
05/04:00am 12.5 8.2 12.0 97 0.3 SSW 26 33 14 18 1011.0 1010.4 0.0
05/03:30am 12.9 8.3 12.3 96 0.3 SW 28 41 15 22 1010.4 1009.9 0.0
05/03:00am 13.3 9.5 12.5 95 0.4 SW 24 32 13 17 1010.4 1009.9 0.0
05/02:30am 13.8 9.5 12.2 90 0.9 SW 26 37 14 20 1010.2 1009.7 0.0
05/02:01am 14.3 10.4 12.2 87 1.2 SW 24 32 13 17 1009.9 1009.4 0.0
05/02:00am 14.4 10.9 12.3 87 1.2 SW 22 32 12 17 1009.9 1009.4 0.0
05/01:30am 14.5 11.4 12.2 86 1.3 WSW 20 32 11 17 1009.8 1009.3 0.0
05/01:06am 14.6 10.8 12.3 86 1.3 SW 24 32 13 17 1009.9 1009.4 0.0
05/01:00am 14.6 10.4 12.3 86 1.3 SW 26 35 14 19 1009.8 1009.3 0.0
05/12:30am 14.6 11.8 12.6 88 1.1 WSW 19 24 10 13 1010.1 1009.6 0.0
05/12:00am 14.6 10.8 12.5 87 1.2 W 24 33 13 18 1009.9 1009.4 0.0
 
Date/Time
EDT
Temp
°C
App
Temp
°C
Dew
Point
°C
Rel
Hum
%
Delta-T
°C
Wind Press
QNH
hPa
Press
MSL
hPa
Rain since
9am
mm
Dir  Spd
km/h
Gust
km/h
Spd
kts
Gust
kts
04/11:30pm 14.6 10.0 12.3 86 1.3 WSW 28 41 15 22 1010.1 1009.6 0.0
04/11:00pm 14.9 11.2 12.8 87 1.2 W 24 33 13 18 1009.9 1009.4 0.0
04/10:43pm 15.1 11.1 13.0 87 1.2 W 26 33 14 18 1009.6 1009.1 0.0
04/10:30pm 15.4 10.9 12.7 84 1.5 W 28 39 15 21 1009.4 1008.9 0.0
04/10:00pm 16.9 11.8 13.2 79 2.1 W 32 43 17 23 1009.2 1008.7 0.0
04/09:30pm 18.6 14.2 10.4 59 4.5 W 24 32 13 17 1008.6 1008.1 0.0
04/09:00pm 20.3 15.2 9.2 49 6.0 WSW 26 32 14 17 1008.2 1007.7 0.0
04/08:30pm 22.4 18.5 10.9 48 6.4 W 22 32 12 17 1007.9 1007.4 0.0
04/08:00pm 24.8 22.6 10.7 41 8.0 W 13 17 7 9 1007.3 1006.7 0.0
04/07:30pm 25.3 22.5 11.5 42 7.9 W 17 20 9 11 1007.1 1006.5 0.0
04/07:00pm 27.6 25.8 12.0 38 9.1 W 13 19 7 10 1007.2 1006.6 0.0
04/06:30pm 26.8 23.6 11.3 38 8.9 W 19 26 10 14 1007.2 1006.6 0.0
04/06:00pm 28.8 26.3 12.2 35 9.8 W 17 20 9 11 1007.2 1006.6 0.0
04/05:30pm 29.3 26.5 11.4 33 10.4 W 17 26 9 14 1007.5 1006.9 0.0
04/05:00pm 28.4 26.9 14.3 42 8.6 NW 15 19 8 10 1007.7 1007.1 0.0
04/04:30pm 29.4 27.0 11.5 33 10.4 WNW 15 20 8 11 1007.9 1007.4 0.0
04/04:00pm 30.0 26.8 12.0 33 10.6 NW 20 30 11 16 1008.0 1007.5 0.0
04/03:30pm 30.6 27.4 12.0 32 11.0 NW 20 28 11 15 1008.2 1007.7 0.0
04/03:00pm 31.7 27.5 11.0 28 12.1 NW 24 32 13 17 1008.8 1008.3 0.0
04/02:30pm 31.4 27.4 11.7 29 11.6 NW 24 35 13 19 1009.2 1008.7 0.0
04/02:00pm 31.1 25.6 10.4 28 12.0 NW 30 39 16 21 1009.6 1009.1 0.0
04/01:36pm 31.0 26.4 12.4 32 11.1 NW 28 46 15 25 1009.8 1009.3 0.0
04/01:30pm 30.7 25.6 10.6 29 11.6 NW 28 39 15 21 1010.0 1009.5 0.0
04/01:00pm 30.3 25.9 10.3 29 11.5 NNW 24 37 13 20 1010.2 1009.7 0.0
04/12:30pm 28.6 23.0 10.3 32 10.4 NW 30 41 16 22 1010.5 1010.0 0.0
04/12:00pm 28.5 24.9 13.2 39 9.1 NNW 24 32 13 17 1010.9 1010.3 0.0
04/11:30am 28.0 22.2 10.7 34 9.9 NNW 32 41 17 22 1010.9 1010.3 0.0
04/11:00am 27.4 23.7 12.6 40 8.7 NNW 24 32 13 17 1011.1 1010.5 0.0
04/10:30am 26.9 22.4 12.5 40 8.4 NNW 28 37 15 20 1010.9 1010.3 0.0
04/10:00am 26.0 21.9 12.8 44 7.8 N 26 33 14 18 1011.2 1010.6 0.0
04/09:30am 24.7 21.4 13.9 51 6.4 N 24 30 13 16 1011.1 1010.5 0.0
04/09:00am 23.4 20.5 14.1 56 5.5 N 22 28 12 15 1011.5 1011.0 0.0
04/08:30am 22.0 19.5 13.6 59 4.9 N 19 22 10 12 1011.4 1010.8 0.0
04/08:00am 20.6 18.1 13.6 64 4.1 N 19 24 10 13 1011.4 1010.8 0.0
04/07:30am 19.1 16.7 12.6 66 3.7 N 17 20 9 11 1011.1 1010.5 0.0
04/07:00am 17.5 14.9 12.0 70 3.1 N 17 20 9 11 1011.0 1010.4 0.0
04/06:30am 15.7 12.8 11.1 74 2.5 N 17 19 9 10 1010.7 1010.2 0.0
04/06:00am 14.4 11.4 10.8 79 1.9 N 17 20 9 11 1010.6 1010.1 0.0
04/05:30am 13.5 11.3 10.7 83 1.5 N 13 15 7 8 1010.7 1010.2 0.0
04/05:00am 13.5 11.2 10.5 82 1.6 N 13 15 7 8 1010.7 1010.2 0.0
04/04:30am 13.8 11.8 10.2 79 1.9 N 11 13 6 7 1010.9 1010.3 0.0
04/04:00am 13.6 12.0 10.2 80 1.8 N 9 11 5 6 1011.2 1010.6 0.0
04/03:30am 12.7 11.6 9.9 83 1.5 NNE 6 11 3 6 1011.5 1011.0 0.0
04/03:00am 14.2 12.5 10.0 76 2.2 NE 9 13 5 7 1011.8 1011.3 0.0
04/02:30am 13.6 11.1 9.6 77 2.1 E 13 17 7 9 1012.0 1011.5 0.0
04/02:00am 13.2 11.0 9.5 78 1.9 SE 11 13 6 7 1012.3 1011.8 0.0
04/01:30am 13.6 11.1 9.6 77 2.1 SE 13 15 7 8 1012.7 1012.2 0.0
04/01:00am 13.7 10.4 9.6 76 2.1 ESE 17 19 9 10 1013.2 1012.7 0.0
04/12:30am 14.5 11.3 9.9 74 2.4 ESE 17 19 9 10 1013.6 1013.1 0.0
04/12:00am 15.3 12.1 9.9 70 2.8 E 17 19 9 10 1013.9 1013.4 0.0
 
Date/Time
EDT
Temp
°C
App
Temp
°C
Dew
Point
°C
Rel
Hum
%
Delta-T
°C
Wind Press
QNH
hPa
Press
MSL
hPa
Rain since
9am
mm
Dir  Spd
km/h
Gust
km/h
Spd
kts
Gust
kts
03/11:30pm 14.4 11.9 11.2 81 1.7 ESE 15 17 8 9 1014.2 1013.7 0.0
03/11:00pm 14.6 12.8 11.0 79 1.9 SE 11 13 6 7 1014.5 1014.0 0.0
03/10:30pm 15.1 12.9 10.9 76 2.3 ESE 13 15 7 8 1014.3 1013.8 0.0
03/10:00pm 16.5 14.2 10.6 68 3.2 SSE 13 15 7 8 1014.2 1013.7 0.0
03/09:30pm 17.4 15.4 10.3 63 3.8 SSE 11 15 6 8 1013.9 1013.4 0.0
03/09:00pm 18.3 15.9 9.9 58 4.5 SSE 13 17 7 9 1013.7 1013.2 0.0
03/08:30pm 18.7 16.3 11.3 62 4.1 SE 15 20 8 11 1013.6 1013.1 0.0
03/08:00pm 21.6 18.5 11.6 53 5.6 SE 19 26 10 14 1013.5 1013.0 0.0
03/07:30pm 23.3 20.2 12.3 50 6.3 SSE 20 28 11 15 1013.2 1012.7 0.0
03/07:00pm 24.4 20.6 12.4 47 7.0 SSE 24 32 13 17 1013.0 1012.5 0.0
03/06:30pm 26.7 25.7 13.4 43 7.9 SSW 11 22 6 12 1012.7 1012.2 0.0
03/06:00pm 29.4 26.4 7.9 26 11.8 W 13 17 7 9 1012.6 1012.1 0.0
03/05:30pm 29.3 25.8 8.9 28 11.4 W 17 20 9 11 1012.9 1012.4 0.0
03/05:00pm 29.4 27.6 9.5 29 11.2 WNW 9 19 5 10 1013.0 1012.5 0.0
03/04:30pm 29.2 27.6 11.7 34 10.2 NW 11 17 6 9 1013.3 1012.8 0.0
03/04:00pm 28.9 26.4 9.6 30 10.9 NW 13 24 7 13 1013.4 1012.9 0.0
03/03:30pm 28.8 26.6 9.5 30 10.9 WNW 11 17 6 9 1013.7 1013.2 0.0
03/03:00pm 28.6 24.7 7.2 26 11.6 NW 17 24 9 13 1014.1 1013.6 0.0
03/02:30pm 28.3 24.5 9.1 30 10.7 WNW 19 28 10 15 1014.4 1013.9 0.0
03/02:00pm 28.3 24.5 9.1 30 10.7 NW 19 24 10 13 1014.7 1014.2 0.0
03/01:30pm 28.1 24.1 8.4 29 10.9 WNW 19 32 10 17 1014.8 1014.3 0.0
03/01:00pm 27.7 23.3 7.5 28 10.9 NNW 20 28 11 15 1015.0 1014.6 0.0
03/12:30pm 27.4 22.9 6.8 27 11.0 NW 20 28 11 15 1015.4 1014.9 0.0
03/12:00pm 27.1 23.7 7.5 29 10.6 NW 15 24 8 13 1015.5 1015.0 0.0
03/11:30am 26.7 25.2 10.4 36 9.2 WNW 9 15 5 8 1015.6 1015.1 0.0
03/11:00am 25.9 24.4 12.0 42 8.0 NNW 11 19 6 10 1015.8 1015.3 0.0
03/10:30am 24.9 24.2 15.5 56 5.7 NNW 13 17 7 9 1015.8 1015.3 0.0
03/10:00am 24.3 23.5 15.2 57 5.5 N 13 17 7 9 1015.9 1015.4 0.0
03/09:30am 22.8 22.1 14.4 59 5.0 N 11 15 6 8 1015.9 1015.4 0.0
03/09:00am 21.1 20.3 14.0 64 4.2 N 11 15 6 8 1015.9 1015.4 0.0
03/08:30am 18.5 18.7 14.8 79 2.2 N 7 9 4 5 1015.7 1015.2 0.0
03/08:00am 15.9 15.8 13.4 85 1.4 N 6 9 3 5 1015.4 1014.9 0.0
03/07:30am 14.5 14.6 13.9 96 0.3 N 6 7 3 4 1015.0 1014.6 0.0
03/07:00am 12.7 13.1 12.4 98 0.2 N 2 6 1 3 1014.8 1014.3 0.0
03/06:30am 11.7 10.5 11.5 99 0.1 N 9 9 5 5 1014.7 1014.2 0.0
03/06:00am 10.8 9.9 10.6 99 0.1 N 6 7 3 4 1014.6 1014.1 0.0
03/05:30am 10.7 9.1 10.2 97 0.3 N 9 11 5 6 1014.4 1013.9 0.0
03/05:00am 11.2 9.3 10.6 96 0.3 NNE 11 13 6 7 1014.2 1013.7 0.0
03/04:30am 11.9 10.0 11.7 99 0.1 NE 13 15 7 8 1014.1 1013.6 0.0
03/04:00am 10.1 8.1 10.0 99 0.1 ENE 11 13 6 7 1014.2 1013.7 0.0
03/03:30am 10.5 8.5 10.3 99 0.1 E 11 13 6 7 1014.4 1013.9 0.0
03/03:00am 10.4 8.0 10.2 99 0.1 ESE 13 15 7 8 1014.7 1014.2 0.0
03/02:30am 10.5 8.2 10.3 99 0.1 ESE 13 17 7 9 1014.9 1014.4 0.0
03/02:00am 10.7 8.0 10.5 99 0.1 ESE 15 15 8 8 1015.4 1014.9 0.0
03/01:30am 10.8 8.2 10.6 99 0.1 ESE 15 17 8 9 1015.7 1015.2 0.0
03/01:00am 10.9 8.7 10.7 99 0.1 ESE 13 15 7 8 1015.9 1015.4 0.0
03/12:30am 11.2 9.1 11.0 99 0.1 SE 13 15 7 8 1016.1 1015.6 0.0
03/12:00am 11.6 9.5 11.3 98 0.2 ESE 13 17 7 9 1016.3 1015.8 0.0
 
Date/Time
EDT
Temp
°C
App
Temp
°C
Dew
Point
°C
Rel
Hum
%
Delta-T
°C
Wind Press
QNH
hPa
Press
MSL
hPa
Rain since
9am
mm
Dir  Spd
km/h
Gust
km/h
Spd
kts
Gust
kts
02/11:30pm 12.1 9.5 11.9 99 0.1 SE 17 19 9 10 1016.4 1015.9 0.0
02/11:00pm 12.3 10.1 12.0 98 0.2 ESE 15 19 8 10 1016.6 1016.1 0.0
02/10:30pm 12.8 10.3 12.2 96 0.3 SE 17 20 9 11 1016.5 1016.0 0.0
02/10:00pm 13.5 11.5 12.6 94 0.5 SSE 15 17 8 9 1016.5 1016.0 0.0
02/09:30pm 14.4 12.5 13.1 92 0.7 SSE 15 17 8 9 1016.2 1015.7 0.0
02/09:00pm 15.1 13.7 13.5 90 0.9 SSE 13 17 7 9 1016.0 1015.5 0.0
02/08:30pm 16.5 15.3 14.0 85 1.4 SSE 13 17 7 9 1015.9 1015.4 0.0
02/08:00pm 18.6 17.5 14.3 76 2.5 SE 13 17 7 9 1015.9 1015.4 0.0
02/07:30pm 20.0 18.2 14.4 70 3.3 SE 17 22 9 12 1015.6 1015.1 0.0

Other formats

Comma delimited format used in spreadsheet applications
http://www.bom.gov.au/fwo/IDV60801/IDV60801.94829.axf

JavaScript Object Notation format (JSON) in row-major order
http://www.bom.gov.au/fwo/IDV60801/IDV60801.94829.json

Data quality

Most of these data are generated automatically and are frequently updated. Quality checks on data are not normally performed. It is possible for incorrect values to appear. Refer to information at About Latest Weather Observations and please check the disclaimer before using these data.